Aérodrome :
LOGIN :

S'inscrire | Disclaimer

   EN    FR    IT 

 










Légende :    VFR   VFR Marginal   IFR   IFR Intensif   IFR Très Intensif
Visi : 
Plafond : 
>= 8 km
>= 3000ft
5 à 8 km
1000 à 3000 ft
1500m à 5 km
500 à 1000 ft
800 à 1500m
200 à 500 ft
< 800m
< 200 ft
Symboles :   Orages  Brouillard  Fortes neiges  Fortes précipitations  Vent > 20 kt
SIGMETs :   Divers  Orages  Givrage  Turbulence  Onde Orograph.  Cendres Volcan.






- Altitude de l'aérodrome : 219 ft
- Code IATA : DNR


LFRD - Dinard

DERNIER METAR :
  • 110830Z AUTO 21009KT CAVOK 05/04 Q1012 TEMPO 21020G33KT SHRA BKN020TCU

METARs EXPIRÉS :
  • 110800Z AUTO 22008KT CAVOK 05/03 Q1012 TEMPO 21020G33KT SHRA BKN020TCU
  • 110730Z AUTO 23008KT CAVOK 04/03 Q1012 TEMPO 21020G33KT SHRA BKN020TCU
  • 110700Z AUTO 23008KT CAVOK 04/03 Q1012 TEMPO 21020G33KT SHRA BKN020TCU
  • 110630Z AUTO 23008KT CAVOK 04/03 Q1012 TEMPO 21020G33KT SHRA BKN020TCU
  • 110600Z AUTO 22007KT CAVOK 04/03 Q1012 NOSIG

TAF TAF LFRD
Valide du 11 à 06h jusqu'au 12 à 06h UTC


110500Z 1106/1206 24010KT 9999 SCT030
TEMPO 1108/1124 21020G33KT 5000 SHRA BKN020TCU
PROB40
TEMPO 1112/1118 2000 TSRAGS BKN008 BKN015CB
BECMG 1204/1206 18013KT 5000 RA BKN008
ATIS : +33 2 99 16 81 50



MET'MAP, la Météo Aéronautique d'un coup d'oeil ! - Copyright ORBIFLY Décembre 2007 - Disclaimer

ORBIFLY MET'MAP TEAM :

Programmation & Développement : Alexandra Zaïnal
Sur une idée originale de : Baudouin d'Aumeries
Assistance à la programmation : Marc-Olivier Méhu
Soutien technique & logistique : Manuel Goepfert

Contact : metmap@orbifly.com




SOURCES & CREDITS :

   NOAA